Weather History for Sedona, AZ

Change the Weather History Date:

Monday, February 11, 2013

  Actual Average Record
Temperature  
Mean Temperature 34 °F -  
Max Temperature 41 °F 59 °F 64 °F (2012)
Min Temperature 26 °F 31 °F 26 °F (2013)
Degree Days  
Heating Degree Days 32    
Moisture  
Dew Point 25 °F    
Average Humidity 77    
Maximum Humidity 100    
Minimum Humidity 60    
Precipitation  
Precipitation 0.00 in - - ()
Sea Level Pressure  
Sea Level Pressure 30.00 in    
Wind  
Wind Speed 8 mph (ENE)    
Max Wind Speed 16 mph    
Max Gust Speed 24 mph    
Visibility 10 miles    
Events Snow    
Averages and records for this station are not official NWS values.
T = Trace of Precipitation, MM = Missing Value Source: NWS Daily Summary

Daily Weather History Graph

Daily Weather History Graph

Search for Another Location

Airport:

Trip Planner

Search our weather history database for the weather conditions in past years. The results will help you decide how hot, cold, wet, or windy it might be!

Date:

Astronomy

Feb. 11, 2013 Rise Set
Actual Time 7:16 AM MST 6:06 PM MST
Civil Twilight 6:50 AM MST 6:32 PM MST
Nautical Twilight 6:20 AM MST 7:02 PM MST
Astronomical Twilight 5:51 AM MST 7:31 PM MST
Moon 7:49 AM MST (2/11) 8:00 PM MST (2/11)
Length of Visible Light 11h 41m
Length of Day
10h 49m
Waxing Crescent, 3% of the Moon is Illuminated
Feb 11
Waxing Crescent
Feb 17
First Quarter
Feb 25
Full
Mar 4
Last Quarter
Mar 11
New

Hourly Weather History & Observations

Time (MST) Temp. Windchill Dew Point Humidity Pressure Visibility Wind Dir Wind Speed Gust Speed Precip Events Conditions
12:15 AM 30.2 °F 26.7 °F 30.2 °F 100% 29.97 in 1.2 mi East 3.5 mph - N/A   Overcast
12:35 AM 28.4 °F 21.2 °F 28.4 °F 100% 29.97 in 10.0 mi NNE 6.9 mph - N/A   Mostly Cloudy
12:55 AM 28.4 °F 22.2 °F 28.4 °F 100% 29.97 in 10.0 mi NE 5.8 mph - N/A   Scattered Clouds
1:15 AM 28.4 °F 19.1 °F 28.4 °F 100% 29.96 in 4.0 mi NE 10.4 mph - N/A   Mostly Cloudy
1:35 AM 28.4 °F 19.1 °F 26.6 °F 93% 29.96 in 10.0 mi NE 10.4 mph - N/A   Overcast
1:55 AM 28.4 °F 19.1 °F 24.8 °F 86% 29.96 in 10.0 mi NE 10.4 mph - N/A   Mostly Cloudy
2:15 AM 28.4 °F 19.1 °F 26.6 °F 93% 29.96 in 10.0 mi NE 10.4 mph - N/A   Scattered Clouds
2:35 AM 28.4 °F 19.7 °F 24.8 °F 86% 29.95 in 10.0 mi NE 9.2 mph - N/A   Scattered Clouds
2:55 AM 28.4 °F 19.7 °F 24.8 °F 86% 29.96 in 10.0 mi NE 9.2 mph - N/A   Scattered Clouds
3:15 AM 28.4 °F 20.4 °F 26.6 °F 93% 29.96 in 10.0 mi NE 8.1 mph - N/A   Mostly Cloudy
3:35 AM 28.4 °F 19.7 °F 24.8 °F 86% 29.96 in 10.0 mi NE 9.2 mph - N/A   Overcast
3:55 AM 28.4 °F 20.4 °F 24.8 °F 86% 29.95 in 10.0 mi ENE 8.1 mph - N/A   Overcast
4:15 AM 28.4 °F 22.2 °F 24.8 °F 86% 29.94 in 10.0 mi NE 5.8 mph - N/A   Overcast
4:35 AM 28.4 °F 19.7 °F 23.0 °F 80% 29.94 in 10.0 mi NE 9.2 mph - N/A   Scattered Clouds
4:55 AM 28.4 °F 18.0 °F 23.0 °F 80% 29.94 in 10.0 mi NE 12.7 mph 16.1 mph N/A   Clear
5:15 AM 28.4 °F 19.7 °F 23.0 °F 80% 29.94 in 10.0 mi NE 9.2 mph - N/A   Clear
5:35 AM 28.4 °F 18.0 °F 21.2 °F 74% 29.94 in 10.0 mi NE 12.7 mph - N/A   Clear
5:55 AM 28.4 °F 18.0 °F 21.2 °F 74% 29.94 in 10.0 mi NE 12.7 mph - N/A   Clear
6:15 AM 28.4 °F 17.5 °F 21.2 °F 74% 29.94 in 10.0 mi NE 13.8 mph - N/A   Clear
6:35 AM 26.6 °F 17.5 °F 19.4 °F 74% 29.95 in 10.0 mi ENE 9.2 mph - N/A   Clear
6:55 AM 28.4 °F 18.0 °F 19.4 °F 69% 29.95 in 10.0 mi NE 12.7 mph 16.1 mph N/A   Clear
7:15 AM 26.6 °F 18.2 °F 19.4 °F 74% 29.96 in 10.0 mi NE 8.1 mph - N/A   Clear
7:35 AM 28.4 °F 19.7 °F 19.4 °F 69% 29.96 in 10.0 mi NE 9.2 mph - N/A   Mostly Cloudy
7:55 AM 26.6 °F 16.2 °F 19.4 °F 74% 29.96 in 10.0 mi NE 11.5 mph - N/A   Overcast
8:15 AM 28.4 °F 19.7 °F 19.4 °F 69% 29.97 in 10.0 mi NE 9.2 mph - N/A   Overcast
8:35 AM 28.4 °F 19.7 °F 19.4 °F 69% 29.98 in 10.0 mi ENE 9.2 mph - N/A   Overcast
8:55 AM 28.4 °F 19.7 °F 19.4 °F 69% 29.98 in 10.0 mi NE 9.2 mph - N/A   Mostly Cloudy
9:15 AM 30.2 °F 21.3 °F 21.2 °F 69% 30.00 in 10.0 mi NE 10.4 mph - N/A   Mostly Cloudy
9:35 AM 30.2 °F 26.7 °F 21.2 °F 69% 30.00 in 10.0 mi NNE 3.5 mph - N/A   Scattered Clouds
9:55 AM 32.0 °F 28.7 °F 21.2 °F 64% 30.00 in 10.0 mi ENE 3.5 mph - N/A   Scattered Clouds
10:15 AM 32.0 °F - 23.0 °F 69% 30.00 in 10.0 mi Calm Calm - N/A   Mostly Cloudy
10:35 AM 32.0 °F 28.7 °F 23.0 °F 69% 30.00 in 10.0 mi East 3.5 mph - N/A   Scattered Clouds
10:55 AM 32.0 °F 28.7 °F 24.8 °F 75% 30.01 in 10.0 mi East 3.5 mph - N/A   Scattered Clouds
11:15 AM 32.0 °F - 24.8 °F 75% 30.01 in 10.0 mi Calm Calm - N/A   Clear
11:35 AM 33.8 °F - 26.6 °F 75% 30.00 in 10.0 mi Calm Calm - N/A   Clear
11:55 AM 33.8 °F - 28.4 °F 81% 30.01 in 10.0 mi Calm Calm - N/A   Clear
12:15 PM 33.8 °F 30.8 °F 26.6 °F 75% 30.00 in 10.0 mi WSW 3.5 mph - N/A   Clear
12:35 PM 35.6 °F - 26.6 °F 70% 30.00 in 10.0 mi Calm Calm - N/A   Clear
12:55 PM 37.4 °F 32.8 °F 30.2 °F 75% 29.99 in 10.0 mi SSE 5.8 mph - N/A   Clear
1:15 PM 39.2 °F 35.9 °F 30.2 °F 70% 29.99 in 10.0 mi SSE 4.6 mph - N/A   Clear
1:35 PM 41.0 °F 38.0 °F 30.2 °F 65% 29.98 in 10.0 mi South 4.6 mph - N/A   Scattered Clouds
1:55 PM 41.0 °F 39.0 °F 28.4 °F 61% 29.98 in 10.0 mi SW 3.5 mph - N/A   Overcast
2:15 PM 39.2 °F 35.9 °F 28.4 °F 65% 29.97 in 10.0 mi South 4.6 mph - N/A   Overcast
2:35 PM 41.0 °F 38.0 °F 28.4 °F 61% 29.97 in 10.0 mi South 4.6 mph - N/A   Overcast
2:55 PM 39.2 °F 35.9 °F 28.4 °F 65% 29.98 in 10.0 mi South 4.6 mph - N/A   Overcast
3:55 PM 41.0 °F - 28.4 °F 61% 30.00 in 10.0 mi Calm Calm - N/A   Mostly Cloudy
4:15 PM 39.2 °F 33.0 °F 32.0 °F 75% 30.00 in 10.0 mi East 9.2 mph - N/A   Overcast
4:35 PM 33.8 °F 23.5 °F 30.2 °F 87% 30.00 in 7.0 mi NE 16.1 mph 24.2 mph N/A Snow Light Snow
4:55 PM 32.0 °F 23.0 °F 32.0 °F 100% 30.01 in 1.2 mi ENE 11.5 mph 19.6 mph N/A Snow Light Snow
5:15 PM 33.8 °F 26.4 °F 32.0 °F 93% 30.02 in 1.0 mi East 9.2 mph - N/A Snow Light Snow
5:35 PM 32.0 °F 23.0 °F 32.0 °F 100% 30.02 in 10.0 mi NE 11.5 mph - N/A   Mostly Cloudy
5:55 PM 32.0 °F 24.2 °F 30.2 °F 93% 30.02 in 10.0 mi ENE 9.2 mph - N/A   Overcast
6:15 PM 33.8 °F 28.6 °F 30.2 °F 87% 30.02 in 10.0 mi East 5.8 mph - N/A   Scattered Clouds
6:35 PM 32.0 °F 27.5 °F 30.2 °F 93% 30.04 in 10.0 mi ENE 4.6 mph - N/A   Clear
6:55 PM 33.8 °F 27.7 °F 30.2 °F 87% 30.04 in 10.0 mi NE 6.9 mph - N/A   Scattered Clouds
7:15 PM 33.8 °F 27.0 °F 30.2 °F 87% 30.05 in 10.0 mi NE 8.1 mph - N/A   Overcast
7:35 PM 33.8 °F 26.4 °F 28.4 °F 81% 30.05 in 10.0 mi ENE 9.2 mph - N/A   Mostly Cloudy
7:55 PM 33.8 °F 28.6 °F 26.6 °F 75% 30.06 in 10.0 mi NNE 5.8 mph - N/A   Scattered Clouds
8:15 PM 32.0 °F 24.2 °F 26.6 °F 80% 30.07 in 10.0 mi NE 9.2 mph - N/A   Clear
8:35 PM 32.0 °F 24.8 °F 24.8 °F 75% 30.07 in 10.0 mi NE 8.1 mph - N/A   Clear
8:55 PM 32.0 °F 24.2 °F 23.0 °F 69% 30.08 in 10.0 mi ENE 9.2 mph - N/A   Clear
9:15 PM 32.0 °F 24.2 °F 23.0 °F 69% 30.08 in 10.0 mi ENE 9.2 mph - N/A   Clear
9:35 PM 32.0 °F 24.2 °F 23.0 °F 69% 30.09 in 10.0 mi NE 9.2 mph - N/A   Clear
9:55 PM 32.0 °F 22.5 °F 23.0 °F 69% 30.09 in 10.0 mi NE 12.7 mph - N/A   Clear
10:15 PM 32.0 °F 23.6 °F 23.0 °F 69% 30.09 in 10.0 mi NE 10.4 mph - N/A   Clear
10:35 PM 32.0 °F 23.0 °F 21.2 °F 64% 30.09 in 10.0 mi ENE 11.5 mph - N/A   Clear
10:55 PM 32.0 °F 23.6 °F 19.4 °F 60% 30.10 in 10.0 mi NE 10.4 mph - N/A   Clear
11:15 PM 30.2 °F 21.3 °F 19.4 °F 64% 30.10 in 10.0 mi NE 10.4 mph - N/A   Clear
11:35 PM 30.2 °F 22.6 °F 19.4 °F 64% 30.10 in 10.0 mi NE 8.1 mph - N/A   Clear
11:55 PM 30.2 °F 21.3 °F 19.4 °F 64% 30.10 in 10.0 mi NE 10.4 mph - N/A   Clear